首页
METAR-TAF:

METAR-TAF

机场 :

惠灵顿, 新西兰

威靈頓國際機場

纬度: 41-20S, 经度: 174-48E, 海拔: 12米

当前天气观测

该预报发布于48分钟前的12:30 UTC
风速19节,风向北转东北
温度 18°C
湿度 88%
气压 1014 hPa
能见度10公里或以上
小雨

METAR: NZWN 171230Z AUTO 02019KT 9999 -RA FEW018/// BKN043/// 18/16 Q1014 TEMPO 6000 RA BKN014

时间: 02:18 (13:18 UTC)

预报

该预报发布于1小时和45分钟前的11:33 UTC
预报有效从17日的 12点(UTC)到 18日的 12点(UTC)
风速15节,风向
能见度10公里或以上
多云层高于3000英尺
小雨
短暂存在
从 17日的 12点(UTC)到 17日的 21点(UTC)
能見度: 6000
多云层高于1400英尺
短暂存在
从 18日的 02点(UTC)到 18日的 12点(UTC)
能見度: 6000
多云层高于1100英尺

TAF: NZWN 171133Z 1712/1812 36015KT 9999 -RA BKN030 TEMPO 1712/1721 6000 RA BKN014 TEMPO 1802/1812 6000 RA BKN011

超过4000个机场的气象观测和天气预报(METAR&TAF报告)。

可查询的气象台以黄色和红色小点在地图上表示。

将鼠标移到小点上方,可查看气象台名称。

然后点击查看天气观测和预报。

如需切换地图:点击带黑十字的绿色按钮放大地图;点击带横线的绿色按钮缩小地图;或者点击绿色箭头查看邻近地区的地图。


METAR-TAF: